Terminal Aerodrome Forecast
Issued by NWS Cleveland, OH

Home | Current Version | Previous Version | Text Only | Print | Product List | Glossary On
Versions: 1 2 3 4 5 6 7 8 9 10 11 12 13 14 15 16 17 18 19 20 21 22 23 24 25 26 27
000
FTUS41 KCLE 280543
TAFERI
TAF
KERI 280543Z 2806/2906 06006KT P6SM OVC070
      TEMPO 2808/2812 5SM -SHRA BR OVC015
     FM281200 03008KT P6SM OVC012
      TEMPO 2812/2815 5SM -RA BR OVC008
     FM281700 36008KT P6SM OVC015
     FM282100 36008KT P6SM OVC025=

USA.gov is the U.S. government's official web portal to all federal, state and local government web resources and services.